sensor_id;sensor_type;location;lat;lon;timestamp;P1;durP1;ratioP1;P2;durP2;ratioP2
36441;SDS011;64346;50.820;16.274;2022-10-22T00:00:50;26.08;;;13.23;;
36441;SDS011;64346;50.820;16.274;2022-10-22T00:03:36;24.85;;;12.95;;
36441;SDS011;64346;50.820;16.274;2022-10-22T00:06:06;22.58;;;12.43;;
36441;SDS011;64346;50.820;16.274;2022-10-22T00:08:36;24.50;;;12.65;;
36441;SDS011;64346;50.820;16.274;2022-10-22T00:11:08;23.15;;;12.10;;
36441;SDS011;64346;50.820;16.274;2022-10-22T00:13:39;20.40;;;13.20;;
36441;SDS011;64346;50.820;16.274;2022-10-22T00:16:07;22.65;;;11.95;;
36441;SDS011;64346;50.820;16.274;2022-10-22T00:18:34;23.35;;;13.00;;
36441;SDS011;64346;50.820;16.274;2022-10-22T00:21:03;24.02;;;12.30;;
36441;SDS011;64346;50.820;16.274;2022-10-22T00:23:33;23.48;;;13.55;;
36441;SDS011;64346;50.820;16.274;2022-10-22T00:26:01;27.35;;;13.95;;
36441;SDS011;64346;50.820;16.274;2022-10-22T00:28:30;22.85;;;13.60;;
36441;SDS011;64346;50.820;16.274;2022-10-22T00:30:58;26.00;;;14.30;;
36441;SDS011;64346;50.820;16.274;2022-10-22T00:33:29;26.05;;;13.98;;
36441;SDS011;64346;50.820;16.274;2022-10-22T00:35:59;25.58;;;13.98;;
36441;SDS011;64346;50.820;16.274;2022-10-22T00:38:26;25.52;;;13.57;;
36441;SDS011;64346;50.820;16.274;2022-10-22T00:40:53;25.27;;;13.93;;
36441;SDS011;64346;50.820;16.274;2022-10-22T00:43:21;26.63;;;15.07;;
36441;SDS011;64346;50.820;16.274;2022-10-22T00:45:49;26.67;;;14.38;;
36441;SDS011;64346;50.820;16.274;2022-10-22T00:48:20;26.42;;;13.27;;
36441;SDS011;64346;50.820;16.274;2022-10-22T00:50:53;26.23;;;14.35;;
36441;SDS011;64346;50.820;16.274;2022-10-22T00:53:22;24.88;;;14.32;;
36441;SDS011;64346;50.820;16.274;2022-10-22T00:56:20;23.35;;;14.02;;
36441;SDS011;64346;50.820;16.274;2022-10-22T00:58:54;25.30;;;15.02;;
36441;SDS011;64346;50.820;16.274;2022-10-22T01:01:25;39.97;;;20.90;;
36441;SDS011;64346;50.820;16.274;2022-10-22T01:03:57;23.73;;;13.07;;
36441;SDS011;64346;50.820;16.274;2022-10-22T01:06:26;22.30;;;13.13;;
36441;SDS011;64346;50.820;16.274;2022-10-22T01:11:37;24.65;;;13.45;;
36441;SDS011;64346;50.820;16.274;2022-10-22T01:20:19;18.92;;;12.32;;
36441;SDS011;64346;50.820;16.274;2022-10-22T01:28:53;29.00;;;12.50;;
36441;SDS011;64346;50.820;16.274;2022-10-22T01:31:32;25.23;;;13.50;;
36441;SDS011;64346;50.820;16.274;2022-10-22T01:34:07;24.08;;;13.32;;
36441;SDS011;64346;50.820;16.274;2022-10-22T01:36:37;23.98;;;12.93;;
36441;SDS011;64346;50.820;16.274;2022-10-22T01:39:05;23.85;;;12.50;;
36441;SDS011;64346;50.820;16.274;2022-10-22T01:41:34;24.02;;;13.10;;
36441;SDS011;64346;50.820;16.274;2022-10-22T01:44:02;25.45;;;14.07;;
36441;SDS011;64346;50.820;16.274;2022-10-22T01:46:29;23.25;;;12.25;;
36441;SDS011;64346;50.820;16.274;2022-10-22T01:49:08;25.08;;;12.75;;
36441;SDS011;64346;50.820;16.274;2022-10-22T01:54:30;22.63;;;12.77;;
36441;SDS011;64346;50.820;16.274;2022-10-22T01:57:12;22.02;;;12.27;;
36441;SDS011;64346;50.820;16.274;2022-10-22T01:59:55;23.20;;;13.70;;
36441;SDS011;64346;50.820;16.274;2022-10-22T02:02:35;21.73;;;13.43;;
36441;SDS011;64346;50.820;16.274;2022-10-22T02:05:37;24.92;;;12.27;;
36441;SDS011;64346;50.820;16.274;2022-10-22T02:08:20;23.25;;;12.18;;
36441;SDS011;64346;50.820;16.274;2022-10-22T02:10:50;25.17;;;12.77;;
36441;SDS011;64346;50.820;16.274;2022-10-22T02:13:26;24.95;;;12.82;;
36441;SDS011;64346;50.820;16.274;2022-10-22T02:16:01;24.77;;;12.60;;
36441;SDS011;64346;50.820;16.274;2022-10-22T02:18:32;28.55;;;12.88;;
36441;SDS011;64346;50.820;16.274;2022-10-22T02:21:06;27.40;;;13.48;;
36441;SDS011;64346;50.820;16.274;2022-10-22T02:23:38;22.48;;;12.30;;
36441;SDS011;64346;50.820;16.274;2022-10-22T02:26:06;22.80;;;12.40;;
36441;SDS011;64346;50.820;16.274;2022-10-22T02:28:45;24.75;;;12.05;;
36441;SDS011;64346;50.820;16.274;2022-10-22T02:31:28;24.20;;;12.70;;
36441;SDS011;64346;50.820;16.274;2022-10-22T02:34:02;22.00;;;12.15;;
36441;SDS011;64346;50.820;16.274;2022-10-22T02:36:34;25.77;;;12.95;;
36441;SDS011;64346;50.820;16.274;2022-10-22T02:39:06;26.58;;;13.75;;
36441;SDS011;64346;50.820;16.274;2022-10-22T02:41:35;24.23;;;13.65;;
36441;SDS011;64346;50.820;16.274;2022-10-22T02:44:06;23.17;;;13.30;;
36441;SDS011;64346;50.820;16.274;2022-10-22T02:46:37;27.83;;;14.05;;
36441;SDS011;64346;50.820;16.274;2022-10-22T02:49:05;23.83;;;13.13;;
36441;SDS011;64346;50.820;16.274;2022-10-22T02:51:33;28.10;;;13.10;;
36441;SDS011;64346;50.820;16.274;2022-10-22T02:54:00;22.40;;;12.80;;
36441;SDS011;64346;50.820;16.274;2022-10-22T02:56:27;28.05;;;13.15;;
36441;SDS011;64346;50.820;16.274;2022-10-22T02:58:55;26.90;;;13.55;;
36441;SDS011;64346;50.820;16.274;2022-10-22T03:01:22;26.52;;;13.23;;
36441;SDS011;64346;50.820;16.274;2022-10-22T03:03:49;23.30;;;13.27;;
36441;SDS011;64346;50.820;16.274;2022-10-22T03:06:17;25.42;;;13.75;;
36441;SDS011;64346;50.820;16.274;2022-10-22T03:08:44;22.33;;;12.85;;
36441;SDS011;64346;50.820;16.274;2022-10-22T03:11:12;22.95;;;12.75;;
36441;SDS011;64346;50.820;16.274;2022-10-22T03:13:39;25.83;;;14.10;;
36441;SDS011;64346;50.820;16.274;2022-10-22T03:16:06;26.67;;;13.50;;
36441;SDS011;64346;50.820;16.274;2022-10-22T03:18:34;24.27;;;13.55;;
36441;SDS011;64346;50.820;16.274;2022-10-22T03:23:35;22.60;;;12.85;;
36441;SDS011;64346;50.820;16.274;2022-10-22T03:26:07;24.77;;;13.23;;
36441;SDS011;64346;50.820;16.274;2022-10-22T03:28:35;25.27;;;13.48;;
36441;SDS011;64346;50.820;16.274;2022-10-22T03:31:05;23.63;;;12.98;;
36441;SDS011;64346;50.820;16.274;2022-10-22T03:33:32;23.48;;;12.57;;
36441;SDS011;64346;50.820;16.274;2022-10-22T03:36:00;28.60;;;14.02;;
36441;SDS011;64346;50.820;16.274;2022-10-22T03:38:27;26.45;;;13.38;;
36441;SDS011;64346;50.820;16.274;2022-10-22T03:40:56;27.67;;;13.55;;
36441;SDS011;64346;50.820;16.274;2022-10-22T03:43:23;23.35;;;12.40;;
36441;SDS011;64346;50.820;16.274;2022-10-22T03:45:51;23.23;;;13.25;;
36441;SDS011;64346;50.820;16.274;2022-10-22T03:48:18;29.52;;;13.88;;
36441;SDS011;64346;50.820;16.274;2022-10-22T03:50:46;24.92;;;12.90;;
36441;SDS011;64346;50.820;16.274;2022-10-22T03:53:16;21.98;;;12.52;;
36441;SDS011;64346;50.820;16.274;2022-10-22T03:55:43;27.52;;;13.90;;
36441;SDS011;64346;50.820;16.274;2022-10-22T03:58:10;22.60;;;12.30;;
36441;SDS011;64346;50.820;16.274;2022-10-22T04:00:38;26.58;;;13.82;;
36441;SDS011;64346;50.820;16.274;2022-10-22T04:03:05;20.45;;;12.65;;
36441;SDS011;64346;50.820;16.274;2022-10-22T04:05:33;27.42;;;14.45;;
36441;SDS011;64346;50.820;16.274;2022-10-22T04:08:00;26.40;;;14.68;;
36441;SDS011;64346;50.820;16.274;2022-10-22T04:10:28;27.73;;;13.52;;
36441;SDS011;64346;50.820;16.274;2022-10-22T04:12:55;26.05;;;13.13;;
36441;SDS011;64346;50.820;16.274;2022-10-22T04:15:22;27.63;;;13.85;;
36441;SDS011;64346;50.820;16.274;2022-10-22T04:17:49;25.50;;;15.00;;
36441;SDS011;64346;50.820;16.274;2022-10-22T04:20:16;23.55;;;14.32;;
36441;SDS011;64346;50.820;16.274;2022-10-22T04:22:44;26.52;;;13.23;;
36441;SDS011;64346;50.820;16.274;2022-10-22T04:25:11;23.80;;;14.10;;
36441;SDS011;64346;50.820;16.274;2022-10-22T04:27:38;25.77;;;14.32;;
36441;SDS011;64346;50.820;16.274;2022-10-22T04:30:07;29.40;;;14.15;;
36441;SDS011;64346;50.820;16.274;2022-10-22T04:32:34;21.67;;;12.77;;
36441;SDS011;64346;50.820;16.274;2022-10-22T04:35:02;24.73;;;12.32;;
36441;SDS011;64346;50.820;16.274;2022-10-22T04:37:29;24.38;;;13.18;;
36441;SDS011;64346;50.820;16.274;2022-10-22T04:39:57;28.00;;;15.02;;
36441;SDS011;64346;50.820;16.274;2022-10-22T04:42:24;36.50;;;16.27;;
36441;SDS011;64346;50.820;16.274;2022-10-22T04:44:52;29.88;;;15.98;;
36441;SDS011;64346;50.820;16.274;2022-10-22T04:47:19;30.58;;;14.93;;
36441;SDS011;64346;50.820;16.274;2022-10-22T04:49:47;31.08;;;16.77;;
36441;SDS011;64346;50.820;16.274;2022-10-22T04:52:14;26.25;;;14.68;;
36441;SDS011;64346;50.820;16.274;2022-10-22T04:54:42;28.70;;;14.77;;
36441;SDS011;64346;50.820;16.274;2022-10-22T04:57:09;27.95;;;13.63;;
36441;SDS011;64346;50.820;16.274;2022-10-22T04:59:36;33.05;;;16.13;;
36441;SDS011;64346;50.820;16.274;2022-10-22T05:02:06;30.95;;;16.48;;
36441;SDS011;64346;50.820;16.274;2022-10-22T05:04:33;28.50;;;15.65;;
36441;SDS011;64346;50.820;16.274;2022-10-22T05:07:00;28.38;;;14.55;;
36441;SDS011;64346;50.820;16.274;2022-10-22T05:09:29;31.20;;;14.85;;
36441;SDS011;64346;50.820;16.274;2022-10-22T05:11:56;28.88;;;15.75;;
36441;SDS011;64346;50.820;16.274;2022-10-22T05:14:23;31.92;;;16.33;;
36441;SDS011;64346;50.820;16.274;2022-10-22T05:16:51;31.00;;;15.48;;
36441;SDS011;64346;50.820;16.274;2022-10-22T05:19:25;31.58;;;16.55;;
36441;SDS011;64346;50.820;16.274;2022-10-22T05:21:54;33.07;;;18.27;;
36441;SDS011;64346;50.820;16.274;2022-10-22T05:24:24;34.70;;;15.88;;
36441;SDS011;64346;50.820;16.274;2022-10-22T05:26:53;34.25;;;17.40;;
36441;SDS011;64346;50.820;16.274;2022-10-22T05:29:22;33.78;;;17.38;;
36441;SDS011;64346;50.820;16.274;2022-10-22T05:31:49;39.80;;;17.52;;
36441;SDS011;64346;50.820;16.274;2022-10-22T05:34:17;38.63;;;18.85;;
36441;SDS011;64346;50.820;16.274;2022-10-22T05:36:44;42.75;;;20.15;;
36441;SDS011;64346;50.820;16.274;2022-10-22T05:39:12;36.60;;;18.60;;
36441;SDS011;64346;50.820;16.274;2022-10-22T05:41:41;36.35;;;17.90;;
36441;SDS011;64346;50.820;16.274;2022-10-22T05:44:09;31.25;;;16.75;;
36441;SDS011;64346;50.820;16.274;2022-10-22T05:46:40;34.50;;;17.15;;
36441;SDS011;64346;50.820;16.274;2022-10-22T05:49:07;36.03;;;17.63;;
36441;SDS011;64346;50.820;16.274;2022-10-22T05:51:38;31.55;;;17.00;;
36441;SDS011;64346;50.820;16.274;2022-10-22T05:54:10;34.00;;;17.67;;
36441;SDS011;64346;50.820;16.274;2022-10-22T05:56:45;33.63;;;17.38;;
36441;SDS011;64346;50.820;16.274;2022-10-22T05:59:12;33.75;;;16.67;;
36441;SDS011;64346;50.820;16.274;2022-10-22T06:01:40;33.35;;;18.75;;
36441;SDS011;64346;50.820;16.274;2022-10-22T06:04:09;35.15;;;15.95;;
36441;SDS011;64346;50.820;16.274;2022-10-22T06:06:46;31.10;;;17.42;;
36441;SDS011;64346;50.820;16.274;2022-10-22T06:09:19;30.33;;;15.88;;
36441;SDS011;64346;50.820;16.274;2022-10-22T06:11:52;29.75;;;16.33;;
36441;SDS011;64346;50.820;16.274;2022-10-22T06:14:20;29.10;;;15.50;;
36441;SDS011;64346;50.820;16.274;2022-10-22T06:16:50;32.17;;;16.10;;
36441;SDS011;64346;50.820;16.274;2022-10-22T06:19:19;28.55;;;15.63;;
36441;SDS011;64346;50.820;16.274;2022-10-22T06:21:48;30.73;;;15.82;;
36441;SDS011;64346;50.820;16.274;2022-10-22T06:24:16;27.45;;;15.00;;
36441;SDS011;64346;50.820;16.274;2022-10-22T06:26:44;29.15;;;15.77;;
36441;SDS011;64346;50.820;16.274;2022-10-22T06:29:16;28.98;;;15.95;;
36441;SDS011;64346;50.820;16.274;2022-10-22T06:31:43;30.35;;;17.58;;
36441;SDS011;64346;50.820;16.274;2022-10-22T06:34:14;30.58;;;16.42;;
36441;SDS011;64346;50.820;16.274;2022-10-22T06:36:41;30.35;;;16.65;;
36441;SDS011;64346;50.820;16.274;2022-10-22T06:39:14;31.80;;;16.70;;
36441;SDS011;64346;50.820;16.274;2022-10-22T06:41:44;31.77;;;16.15;;
36441;SDS011;64346;50.820;16.274;2022-10-22T06:44:15;31.42;;;16.65;;
36441;SDS011;64346;50.820;16.274;2022-10-22T06:46:44;33.93;;;18.10;;
36441;SDS011;64346;50.820;16.274;2022-10-22T06:49:12;36.70;;;18.40;;
36441;SDS011;64346;50.820;16.274;2022-10-22T06:51:41;32.28;;;16.90;;
36441;SDS011;64346;50.820;16.274;2022-10-22T06:54:09;28.13;;;15.60;;
36441;SDS011;64346;50.820;16.274;2022-10-22T06:56:37;30.23;;;17.48;;
36441;SDS011;64346;50.820;16.274;2022-10-22T06:59:05;31.63;;;16.40;;
36441;SDS011;64346;50.820;16.274;2022-10-22T07:01:33;33.78;;;16.98;;
36441;SDS011;64346;50.820;16.274;2022-10-22T07:04:02;34.45;;;17.05;;
36441;SDS011;64346;50.820;16.274;2022-10-22T07:06:30;35.30;;;19.77;;
36441;SDS011;64346;50.820;16.274;2022-10-22T07:08:58;31.27;;;17.05;;
36441;SDS011;64346;50.820;16.274;2022-10-22T07:11:27;37.53;;;20.50;;
36441;SDS011;64346;50.820;16.274;2022-10-22T07:13:57;37.10;;;19.40;;
36441;SDS011;64346;50.820;16.274;2022-10-22T07:16:26;39.22;;;20.42;;
36441;SDS011;64346;50.820;16.274;2022-10-22T07:19:01;39.80;;;21.75;;
36441;SDS011;64346;50.820;16.274;2022-10-22T07:21:29;39.42;;;20.40;;
36441;SDS011;64346;50.820;16.274;2022-10-22T07:23:57;33.67;;;19.17;;
36441;SDS011;64346;50.820;16.274;2022-10-22T07:26:25;39.38;;;20.55;;
36441;SDS011;64346;50.820;16.274;2022-10-22T07:28:54;38.75;;;20.73;;
36441;SDS011;64346;50.820;16.274;2022-10-22T07:31:21;41.63;;;22.05;;
36441;SDS011;64346;50.820;16.274;2022-10-22T07:33:48;45.05;;;21.60;;
36441;SDS011;64346;50.820;16.274;2022-10-22T07:36:18;42.47;;;22.02;;
36441;SDS011;64346;50.820;16.274;2022-10-22T07:38:48;42.28;;;21.80;;
36441;SDS011;64346;50.820;16.274;2022-10-22T07:41:20;43.60;;;21.70;;
36441;SDS011;64346;50.820;16.274;2022-10-22T07:43:48;48.70;;;19.67;;
36441;SDS011;64346;50.820;16.274;2022-10-22T07:46:15;37.42;;;18.67;;
36441;SDS011;64346;50.820;16.274;2022-10-22T07:48:43;43.05;;;20.52;;
36441;SDS011;64346;50.820;16.274;2022-10-22T07:51:10;39.10;;;18.15;;
36441;SDS011;64346;50.820;16.274;2022-10-22T07:53:37;34.47;;;18.25;;
36441;SDS011;64346;50.820;16.274;2022-10-22T07:56:05;36.67;;;18.27;;
36441;SDS011;64346;50.820;16.274;2022-10-22T07:58:33;35.75;;;18.20;;
36441;SDS011;64346;50.820;16.274;2022-10-22T08:01:00;38.38;;;19.05;;
36441;SDS011;64346;50.820;16.274;2022-10-22T08:03:29;34.95;;;17.75;;
36441;SDS011;64346;50.820;16.274;2022-10-22T08:05:56;36.05;;;17.05;;
36441;SDS011;64346;50.820;16.274;2022-10-22T08:08:24;31.38;;;16.23;;
36441;SDS011;64346;50.820;16.274;2022-10-22T08:10:57;33.45;;;16.48;;
36441;SDS011;64346;50.820;16.274;2022-10-22T08:13:25;31.98;;;16.27;;
36441;SDS011;64346;50.820;16.274;2022-10-22T08:15:53;28.20;;;14.10;;
36441;SDS011;64346;50.820;16.274;2022-10-22T08:18:24;27.75;;;15.15;;
36441;SDS011;64346;50.820;16.274;2022-10-22T08:20:52;28.33;;;15.32;;
36441;SDS011;64346;50.820;16.274;2022-10-22T08:23:22;30.02;;;15.32;;
36441;SDS011;64346;50.820;16.274;2022-10-22T08:25:54;34.42;;;16.92;;
36441;SDS011;64346;50.820;16.274;2022-10-22T08:28:24;28.25;;;15.90;;
36441;SDS011;64346;50.820;16.274;2022-10-22T08:30:51;31.95;;;15.82;;
36441;SDS011;64346;50.820;16.274;2022-10-22T08:33:19;29.17;;;16.52;;
36441;SDS011;64346;50.820;16.274;2022-10-22T08:35:47;26.73;;;14.45;;
36441;SDS011;64346;50.820;16.274;2022-10-22T08:38:15;26.48;;;14.18;;
36441;SDS011;64346;50.820;16.274;2022-10-22T08:40:46;28.77;;;14.25;;
36441;SDS011;64346;50.820;16.274;2022-10-22T08:48:48;24.08;;;13.00;;
36441;SDS011;64346;50.820;16.274;2022-10-22T08:51:23;26.10;;;14.18;;
36441;SDS011;64346;50.820;16.274;2022-10-22T08:56:40;27.17;;;14.25;;
36441;SDS011;64346;50.820;16.274;2022-10-22T08:59:16;24.85;;;13.45;;
36441;SDS011;64346;50.820;16.274;2022-10-22T09:02:01;27.35;;;15.52;;
36441;SDS011;64346;50.820;16.274;2022-10-22T09:04:36;28.08;;;16.30;;
36441;SDS011;64346;50.820;16.274;2022-10-22T09:07:16;29.83;;;16.10;;
36441;SDS011;64346;50.820;16.274;2022-10-22T09:09:44;25.23;;;15.00;;
36441;SDS011;64346;50.820;16.274;2022-10-22T09:12:16;25.63;;;16.20;;
36441;SDS011;64346;50.820;16.274;2022-10-22T09:14:46;27.48;;;16.23;;
36441;SDS011;64346;50.820;16.274;2022-10-22T09:17:25;27.38;;;15.52;;
36441;SDS011;64346;50.820;16.274;2022-10-22T09:25:28;21.15;;;12.75;;
36441;SDS011;64346;50.820;16.274;2022-10-22T09:28:03;23.50;;;12.27;;
36441;SDS011;64346;50.820;16.274;2022-10-22T09:30:32;20.30;;;12.02;;
36441;SDS011;64346;50.820;16.274;2022-10-22T09:38:15;20.63;;;12.20;;
36441;SDS011;64346;50.820;16.274;2022-10-22T09:40:46;19.33;;;11.80;;
36441;SDS011;64346;50.820;16.274;2022-10-22T09:43:19;19.13;;;10.60;;
36441;SDS011;64346;50.820;16.274;2022-10-22T09:45:54;17.35;;;9.52;;
36441;SDS011;64346;50.820;16.274;2022-10-22T09:48:31;17.55;;;9.55;;
36441;SDS011;64346;50.820;16.274;2022-10-22T09:53:44;17.25;;;9.95;;
36441;SDS011;64346;50.820;16.274;2022-10-22T09:56:17;15.50;;;9.82;;
36441;SDS011;64346;50.820;16.274;2022-10-22T09:58:50;16.83;;;9.30;;
36441;SDS011;64346;50.820;16.274;2022-10-22T10:01:23;15.25;;;10.02;;
36441;SDS011;64346;50.820;16.274;2022-10-22T10:03:53;16.67;;;9.95;;
36441;SDS011;64346;50.820;16.274;2022-10-22T10:06:34;18.58;;;10.07;;
36441;SDS011;64346;50.820;16.274;2022-10-22T10:09:04;16.02;;;8.82;;
36441;SDS011;64346;50.820;16.274;2022-10-22T10:17:51;18.45;;;10.55;;
36441;SDS011;64346;50.820;16.274;2022-10-22T10:25:53;19.55;;;10.90;;
36441;SDS011;64346;50.820;16.274;2022-10-22T10:33:46;15.40;;;8.75;;
36441;SDS011;64346;50.820;16.274;2022-10-22T10:36:26;16.27;;;9.40;;
36441;SDS011;64346;50.820;16.274;2022-10-22T10:50:10;16.08;;;9.88;;
36441;SDS011;64346;50.820;16.274;2022-10-22T10:52:53;17.50;;;8.55;;
36441;SDS011;64346;50.820;16.274;2022-10-22T10:55:30;16.83;;;9.32;;
36441;SDS011;64346;50.820;16.274;2022-10-22T11:00:57;15.10;;;8.65;;
36441;SDS011;64346;50.820;16.274;2022-10-22T11:06:13;16.88;;;10.32;;
36441;SDS011;64346;50.820;16.274;2022-10-22T11:08:56;17.63;;;9.82;;
36441;SDS011;64346;50.820;16.274;2022-10-22T11:11:47;15.75;;;8.80;;
36441;SDS011;64346;50.820;16.274;2022-10-22T11:14:20;16.20;;;8.75;;
36441;SDS011;64346;50.820;16.274;2022-10-22T11:16:58;14.85;;;8.32;;
36441;SDS011;64346;50.820;16.274;2022-10-22T11:22:46;16.90;;;9.30;;
36441;SDS011;64346;50.820;16.274;2022-10-22T11:25:41;17.60;;;10.18;;
36441;SDS011;64346;50.820;16.274;2022-10-22T11:28:17;18.00;;;9.93;;
36441;SDS011;64346;50.820;16.274;2022-10-22T11:31:04;21.08;;;11.20;;
36441;SDS011;64346;50.820;16.274;2022-10-22T11:36:41;17.52;;;9.20;;
36441;SDS011;64346;50.820;16.274;2022-10-22T11:42:01;13.88;;;8.02;;
36441;SDS011;64346;50.820;16.274;2022-10-22T11:44:30;13.40;;;8.82;;
36441;SDS011;64346;50.820;16.274;2022-10-22T11:47:22;14.77;;;8.30;;
36441;SDS011;64346;50.820;16.274;2022-10-22T11:52:52;16.25;;;9.50;;
36441;SDS011;64346;50.820;16.274;2022-10-22T11:55:30;16.40;;;9.98;;
36441;SDS011;64346;50.820;16.274;2022-10-22T11:58:27;17.05;;;10.98;;
36441;SDS011;64346;50.820;16.274;2022-10-22T12:00:55;17.98;;;11.00;;
36441;SDS011;64346;50.820;16.274;2022-10-22T12:08:33;18.15;;;10.93;;
36441;SDS011;64346;50.820;16.274;2022-10-22T12:16:55;18.05;;;9.82;;
36441;SDS011;64346;50.820;16.274;2022-10-22T12:19:34;17.83;;;10.15;;
36441;SDS011;64346;50.820;16.274;2022-10-22T12:24:52;18.38;;;10.70;;
36441;SDS011;64346;50.820;16.274;2022-10-22T12:27:22;20.38;;;11.70;;
36441;SDS011;64346;50.820;16.274;2022-10-22T12:29:54;15.88;;;10.07;;
36441;SDS011;64346;50.820;16.274;2022-10-22T12:32:33;17.95;;;10.75;;
36441;SDS011;64346;50.820;16.274;2022-10-22T12:35:03;18.95;;;11.32;;
36441;SDS011;64346;50.820;16.274;2022-10-22T12:37:33;18.20;;;11.27;;
36441;SDS011;64346;50.820;16.274;2022-10-22T12:40:12;17.50;;;11.05;;
36441;SDS011;64346;50.820;16.274;2022-10-22T12:42:47;18.65;;;11.50;;
36441;SDS011;64346;50.820;16.274;2022-10-22T12:45:15;29.45;;;16.48;;
36441;SDS011;64346;50.820;16.274;2022-10-22T12:47:47;27.55;;;15.75;;
36441;SDS011;64346;50.820;16.274;2022-10-22T12:50:17;17.83;;;11.10;;
36441;SDS011;64346;50.820;16.274;2022-10-22T12:52:47;16.23;;;10.20;;
36441;SDS011;64346;50.820;16.274;2022-10-22T12:55:18;16.63;;;10.27;;
36441;SDS011;64346;50.820;16.274;2022-10-22T12:57:51;16.33;;;10.10;;
36441;SDS011;64346;50.820;16.274;2022-10-22T13:00:19;16.33;;;9.90;;
36441;SDS011;64346;50.820;16.274;2022-10-22T13:02:49;15.77;;;9.45;;
36441;SDS011;64346;50.820;16.274;2022-10-22T13:10:50;17.25;;;8.98;;
36441;SDS011;64346;50.820;16.274;2022-10-22T13:16:38;13.02;;;8.23;;
36441;SDS011;64346;50.820;16.274;2022-10-22T13:18:58;14.88;;;8.40;;
36441;SDS011;64346;50.820;16.274;2022-10-22T13:21:33;14.52;;;9.02;;
36441;SDS011;64346;50.820;16.274;2022-10-22T13:24:21;17.17;;;9.65;;
36441;SDS011;64346;50.820;16.274;2022-10-22T13:26:51;17.05;;;9.57;;
36441;SDS011;64346;50.820;16.274;2022-10-22T13:29:21;16.50;;;9.35;;
36441;SDS011;64346;50.820;16.274;2022-10-22T13:31:50;21.25;;;11.90;;
36441;SDS011;64346;50.820;16.274;2022-10-22T13:34:19;25.85;;;12.90;;
36441;SDS011;64346;50.820;16.274;2022-10-22T13:36:49;19.80;;;11.02;;
36441;SDS011;64346;50.820;16.274;2022-10-22T13:39:19;20.52;;;11.75;;
36441;SDS011;64346;50.820;16.274;2022-10-22T13:41:50;18.00;;;11.48;;
36441;SDS011;64346;50.820;16.274;2022-10-22T13:44:17;19.52;;;11.23;;
36441;SDS011;64346;50.820;16.274;2022-10-22T13:46:46;18.85;;;11.15;;
36441;SDS011;64346;50.820;16.274;2022-10-22T13:49:17;20.63;;;11.23;;
36441;SDS011;64346;50.820;16.274;2022-10-22T13:51:46;18.88;;;10.85;;
36441;SDS011;64346;50.820;16.274;2022-10-22T13:54:17;19.67;;;11.48;;
36441;SDS011;64346;50.820;16.274;2022-10-22T13:56:47;17.85;;;11.65;;
36441;SDS011;64346;50.820;16.274;2022-10-22T13:59:14;22.42;;;13.30;;
36441;SDS011;64346;50.820;16.274;2022-10-22T14:01:46;19.77;;;11.57;;
36441;SDS011;64346;50.820;16.274;2022-10-22T14:04:14;18.23;;;11.25;;
36441;SDS011;64346;50.820;16.274;2022-10-22T14:06:41;19.05;;;11.73;;
36441;SDS011;64346;50.820;16.274;2022-10-22T14:09:10;17.40;;;10.95;;
36441;SDS011;64346;50.820;16.274;2022-10-22T14:11:41;20.85;;;11.38;;
36441;SDS011;64346;50.820;16.274;2022-10-22T14:14:08;18.35;;;10.88;;
36441;SDS011;64346;50.820;16.274;2022-10-22T14:16:36;19.63;;;11.48;;
36441;SDS011;64346;50.820;16.274;2022-10-22T14:19:06;22.52;;;14.18;;
36441;SDS011;64346;50.820;16.274;2022-10-22T14:21:36;23.10;;;14.38;;
36441;SDS011;64346;50.820;16.274;2022-10-22T14:24:03;21.23;;;13.50;;
36441;SDS011;64346;50.820;16.274;2022-10-22T14:26:36;25.67;;;16.33;;
36441;SDS011;64346;50.820;16.274;2022-10-22T14:29:03;23.27;;;15.18;;
36441;SDS011;64346;50.820;16.274;2022-10-22T14:31:37;23.92;;;15.52;;
36441;SDS011;64346;50.820;16.274;2022-10-22T14:34:05;23.95;;;15.10;;
36441;SDS011;64346;50.820;16.274;2022-10-22T14:36:33;25.35;;;15.43;;
36441;SDS011;64346;50.820;16.274;2022-10-22T14:39:00;23.52;;;15.23;;
36441;SDS011;64346;50.820;16.274;2022-10-22T14:41:30;24.20;;;15.10;;
36441;SDS011;64346;50.820;16.274;2022-10-22T14:43:57;27.17;;;16.30;;
36441;SDS011;64346;50.820;16.274;2022-10-22T14:46:24;24.15;;;15.02;;
36441;SDS011;64346;50.820;16.274;2022-10-22T14:48:52;26.02;;;15.18;;
36441;SDS011;64346;50.820;16.274;2022-10-22T14:51:19;24.08;;;14.45;;
36441;SDS011;64346;50.820;16.274;2022-10-22T14:53:47;25.00;;;15.73;;
36441;SDS011;64346;50.820;16.274;2022-10-22T14:56:18;24.75;;;15.75;;
36441;SDS011;64346;50.820;16.274;2022-10-22T14:58:45;24.77;;;15.05;;
36441;SDS011;64346;50.820;16.274;2022-10-22T15:01:13;26.58;;;16.52;;
36441;SDS011;64346;50.820;16.274;2022-10-22T15:03:40;26.02;;;15.98;;
36441;SDS011;64346;50.820;16.274;2022-10-22T15:06:08;29.98;;;17.85;;
36441;SDS011;64346;50.820;16.274;2022-10-22T15:08:37;26.15;;;15.85;;
36441;SDS011;64346;50.820;16.274;2022-10-22T15:11:06;27.73;;;17.17;;
36441;SDS011;64346;50.820;16.274;2022-10-22T15:13:36;27.42;;;16.90;;
36441;SDS011;64346;50.820;16.274;2022-10-22T15:16:05;26.98;;;16.80;;
36441;SDS011;64346;50.820;16.274;2022-10-22T15:18:33;28.05;;;17.60;;
36441;SDS011;64346;50.820;16.274;2022-10-22T15:21:02;26.75;;;16.48;;
36441;SDS011;64346;50.820;16.274;2022-10-22T15:23:30;28.77;;;16.45;;
36441;SDS011;64346;50.820;16.274;2022-10-22T15:25:58;28.05;;;16.90;;
36441;SDS011;64346;50.820;16.274;2022-10-22T15:28:25;28.67;;;17.30;;
36441;SDS011;64346;50.820;16.274;2022-10-22T15:30:57;28.73;;;16.60;;
36441;SDS011;64346;50.820;16.274;2022-10-22T15:33:26;26.60;;;16.70;;
36441;SDS011;64346;50.820;16.274;2022-10-22T15:35:55;26.65;;;16.10;;
36441;SDS011;64346;50.820;16.274;2022-10-22T15:38:26;25.27;;;16.02;;
36441;SDS011;64346;50.820;16.274;2022-10-22T15:40:59;28.08;;;15.30;;
36441;SDS011;64346;50.820;16.274;2022-10-22T15:43:31;26.42;;;16.02;;
36441;SDS011;64346;50.820;16.274;2022-10-22T15:46:10;26.40;;;16.00;;
36441;SDS011;64346;50.820;16.274;2022-10-22T15:48:42;23.85;;;14.80;;
36441;SDS011;64346;50.820;16.274;2022-10-22T15:51:11;24.50;;;15.20;;
36441;SDS011;64346;50.820;16.274;2022-10-22T15:53:40;23.60;;;14.57;;
36441;SDS011;64346;50.820;16.274;2022-10-22T15:56:08;23.00;;;12.57;;
36441;SDS011;64346;50.820;16.274;2022-10-22T15:58:38;20.35;;;11.63;;
36441;SDS011;64346;50.820;16.274;2022-10-22T16:01:08;19.27;;;10.73;;
36441;SDS011;64346;50.820;16.274;2022-10-22T16:03:40;18.63;;;10.18;;
36441;SDS011;64346;50.820;16.274;2022-10-22T16:06:09;17.55;;;9.60;;
36441;SDS011;64346;50.820;16.274;2022-10-22T16:08:36;15.38;;;9.02;;
36441;SDS011;64346;50.820;16.274;2022-10-22T16:11:06;18.27;;;9.55;;
36441;SDS011;64346;50.820;16.274;2022-10-22T16:13:33;16.88;;;8.88;;
36441;SDS011;64346;50.820;16.274;2022-10-22T16:16:03;18.75;;;10.27;;
36441;SDS011;64346;50.820;16.274;2022-10-22T16:18:35;17.25;;;9.68;;
36441;SDS011;64346;50.820;16.274;2022-10-22T16:21:08;19.27;;;10.98;;